sensor_id;sensor_type;location;lat;lon;timestamp;pressure;altitude;pressure_sealevel;temperature;humidity
6387;BME280;3226;42.162;24.756;2023-03-08T00:00:40;98918.09;;;5.69;87.20
6387;BME280;3226;42.162;24.756;2023-03-08T00:03:11;98925.75;;;5.95;86.50
6387;BME280;3226;42.162;24.756;2023-03-08T00:05:40;98926.28;;;5.76;87.25
6387;BME280;3226;42.162;24.756;2023-03-08T00:08:09;98916.53;;;5.91;86.46
6387;BME280;3226;42.162;24.756;2023-03-08T00:10:37;98913.28;;;5.76;86.84
6387;BME280;3226;42.162;24.756;2023-03-08T00:13:05;98919.19;;;5.78;87.05
6387;BME280;3226;42.162;24.756;2023-03-08T00:15:35;98901.13;;;5.76;86.95
6387;BME280;3226;42.162;24.756;2023-03-08T00:18:04;98911.59;;;5.63;87.69
6387;BME280;3226;42.162;24.756;2023-03-08T00:20:32;98923.28;;;5.58;88.88
6387;BME280;3226;42.162;24.756;2023-03-08T00:23:00;98911.47;;;5.65;88.23
6387;BME280;3226;42.162;24.756;2023-03-08T00:25:29;98902.13;;;5.62;87.68
6387;BME280;3226;42.162;24.756;2023-03-08T00:27:57;98920.53;;;5.59;88.77
6387;BME280;3226;42.162;24.756;2023-03-08T00:30:25;98922.34;;;5.59;88.65
6387;BME280;3226;42.162;24.756;2023-03-08T00:39:05;98926.00;;;5.32;89.58
6387;BME280;3226;42.162;24.756;2023-03-08T00:42:28;98921.16;;;5.63;88.92
6387;BME280;3226;42.162;24.756;2023-03-08T00:51:23;98907.22;;;5.64;88.26
6387;BME280;3226;42.162;24.756;2023-03-08T00:53:51;98909.28;;;5.72;87.34
6387;BME280;3226;42.162;24.756;2023-03-08T01:12:02;98917.22;;;5.21;89.31
6387;BME280;3226;42.162;24.756;2023-03-08T01:14:50;98916.44;;;5.08;89.09
6387;BME280;3226;42.162;24.756;2023-03-08T01:23:27;98906.84;;;4.47;93.47
6387;BME280;3226;42.162;24.756;2023-03-08T01:25:58;98908.81;;;4.43;93.62
6387;BME280;3226;42.162;24.756;2023-03-08T01:28:26;98908.16;;;4.53;92.98
6387;BME280;3226;42.162;24.756;2023-03-08T01:31:15;98915.16;;;4.39;94.76
6387;BME280;3226;42.162;24.756;2023-03-08T01:34:02;98916.38;;;4.46;93.56
6387;BME280;3226;42.162;24.756;2023-03-08T01:50:04;98923.22;;;4.22;95.20
6387;BME280;3226;42.162;24.756;2023-03-08T01:55:56;98932.47;;;4.00;97.25
6387;BME280;3226;42.162;24.756;2023-03-08T01:58:44;98937.47;;;4.16;97.77
6387;BME280;3226;42.162;24.756;2023-03-08T02:01:13;98920.84;;;4.31;95.84
6387;BME280;3226;42.162;24.756;2023-03-08T02:03:41;98924.81;;;4.11;96.14
6387;BME280;3226;42.162;24.756;2023-03-08T02:06:11;98918.25;;;4.05;96.92
6387;BME280;3226;42.162;24.756;2023-03-08T02:08:40;98917.75;;;4.26;95.25
6387;BME280;3226;42.162;24.756;2023-03-08T02:11:09;98902.09;;;4.28;95.11
6387;BME280;3226;42.162;24.756;2023-03-08T02:13:37;98875.56;;;4.11;94.44
6387;BME280;3226;42.162;24.756;2023-03-08T02:16:07;98906.75;;;4.36;94.32
6387;BME280;3226;42.162;24.756;2023-03-08T02:18:36;98912.06;;;4.34;94.66
6387;BME280;3226;42.162;24.756;2023-03-08T02:21:16;98911.09;;;4.48;93.89
6387;BME280;3226;42.162;24.756;2023-03-08T02:23:45;98910.59;;;4.30;94.46
6387;BME280;3226;42.162;24.756;2023-03-08T02:26:13;98911.00;;;4.24;95.12
6387;BME280;3226;42.162;24.756;2023-03-08T02:28:42;98912.34;;;4.29;94.18
6387;BME280;3226;42.162;24.756;2023-03-08T02:31:11;98917.25;;;4.34;94.37
6387;BME280;3226;42.162;24.756;2023-03-08T02:33:39;98913.06;;;4.31;94.89
6387;BME280;3226;42.162;24.756;2023-03-08T02:36:08;98927.69;;;4.07;95.47
6387;BME280;3226;42.162;24.756;2023-03-08T02:38:36;98927.38;;;3.85;96.83
6387;BME280;3226;42.162;24.756;2023-03-08T02:57:07;98942.66;;;3.63;94.38
6387;BME280;3226;42.162;24.756;2023-03-08T02:59:48;98944.00;;;3.55;94.45
6387;BME280;3226;42.162;24.756;2023-03-08T03:02:34;98945.50;;;3.72;94.87
6387;BME280;3226;42.162;24.756;2023-03-08T03:05:21;98939.69;;;3.69;94.22
6387;BME280;3226;42.162;24.756;2023-03-08T03:15:04;98954.44;;;3.54;94.66
6387;BME280;3226;42.162;24.756;2023-03-08T03:17:32;98953.84;;;3.63;93.79
6387;BME280;3226;42.162;24.756;2023-03-08T03:23:04;98946.56;;;3.42;95.29
6387;BME280;3226;42.162;24.756;2023-03-08T03:28:37;98954.34;;;3.00;95.54
6387;BME280;3226;42.162;24.756;2023-03-08T03:31:07;98918.53;;;2.80;95.40
6387;BME280;3226;42.162;24.756;2023-03-08T03:33:36;98951.84;;;2.99;95.94
6387;BME280;3226;42.162;24.756;2023-03-08T03:36:05;98962.56;;;2.93;96.42
6387;BME280;3226;42.162;24.756;2023-03-08T03:38:35;98954.06;;;2.91;95.97
6387;BME280;3226;42.162;24.756;2023-03-08T03:41:05;98960.44;;;2.99;95.46
6387;BME280;3226;42.162;24.756;2023-03-08T03:43:34;98962.44;;;3.09;95.26
6387;BME280;3226;42.162;24.756;2023-03-08T03:46:04;98966.88;;;3.21;95.02
6387;BME280;3226;42.162;24.756;2023-03-08T03:48:34;98972.13;;;3.20;93.90
6387;BME280;3226;42.162;24.756;2023-03-08T03:51:04;98963.47;;;3.06;94.25
6387;BME280;3226;42.162;24.756;2023-03-08T03:53:34;98975.63;;;3.18;93.98
6387;BME280;3226;42.162;24.756;2023-03-08T03:56:03;98956.06;;;3.00;94.02
6387;BME280;3226;42.162;24.756;2023-03-08T03:58:32;98986.56;;;2.95;94.52
6387;BME280;3226;42.162;24.756;2023-03-08T04:01:00;98987.16;;;2.85;94.86
6387;BME280;3226;42.162;24.756;2023-03-08T04:03:34;98982.53;;;2.91;95.38
6387;BME280;3226;42.162;24.756;2023-03-08T04:06:06;98985.91;;;3.06;94.27
6387;BME280;3226;42.162;24.756;2023-03-08T04:08:35;98982.34;;;2.94;95.15
6387;BME280;3226;42.162;24.756;2023-03-08T04:11:08;98985.53;;;3.12;94.88
6387;BME280;3226;42.162;24.756;2023-03-08T04:13:36;98927.47;;;2.88;93.07
6387;BME280;3226;42.162;24.756;2023-03-08T04:16:10;98991.81;;;3.22;92.64
6387;BME280;3226;42.162;24.756;2023-03-08T04:18:41;98988.22;;;3.10;94.09
6387;BME280;3226;42.162;24.756;2023-03-08T04:21:09;98983.59;;;3.15;92.81
6387;BME280;3226;42.162;24.756;2023-03-08T04:23:38;98994.03;;;3.14;93.12
6387;BME280;3226;42.162;24.756;2023-03-08T04:26:06;99002.72;;;3.13;93.37
6387;BME280;3226;42.162;24.756;2023-03-08T04:28:34;98994.09;;;2.85;93.86
6387;BME280;3226;42.162;24.756;2023-03-08T04:31:11;99014.38;;;3.06;95.05
6387;BME280;3226;42.162;24.756;2023-03-08T04:33:40;99015.22;;;2.92;96.37
6387;BME280;3226;42.162;24.756;2023-03-08T04:36:09;99019.91;;;3.14;95.31
6387;BME280;3226;42.162;24.756;2023-03-08T04:38:37;99021.88;;;2.96;95.61
6387;BME280;3226;42.162;24.756;2023-03-08T04:41:05;99027.88;;;2.96;95.58
6387;BME280;3226;42.162;24.756;2023-03-08T04:43:38;99006.75;;;2.75;95.61
6387;BME280;3226;42.162;24.756;2023-03-08T04:46:07;99019.09;;;3.13;94.87
6387;BME280;3226;42.162;24.756;2023-03-08T04:48:35;99012.16;;;2.99;94.84
6387;BME280;3226;42.162;24.756;2023-03-08T04:51:05;99013.00;;;3.00;95.26
6387;BME280;3226;42.162;24.756;2023-03-08T04:53:34;99012.44;;;3.09;94.73
6387;BME280;3226;42.162;24.756;2023-03-08T04:56:02;99009.41;;;2.88;94.94
6387;BME280;3226;42.162;24.756;2023-03-08T04:58:30;99015.06;;;2.66;96.74
6387;BME280;3226;42.162;24.756;2023-03-08T05:00:59;99022.44;;;2.72;96.32
6387;BME280;3226;42.162;24.756;2023-03-08T05:03:27;99013.75;;;2.58;97.14
6387;BME280;3226;42.162;24.756;2023-03-08T05:05:55;99014.13;;;2.81;96.98
6387;BME280;3226;42.162;24.756;2023-03-08T05:08:24;98959.91;;;2.65;95.15
6387;BME280;3226;42.162;24.756;2023-03-08T05:10:54;99012.75;;;2.90;95.23
6387;BME280;3226;42.162;24.756;2023-03-08T05:13:27;99010.06;;;3.06;95.03
6387;BME280;3226;42.162;24.756;2023-03-08T05:15:56;99006.69;;;3.18;94.01
6387;BME280;3226;42.162;24.756;2023-03-08T05:18:24;99006.25;;;2.83;94.26
6387;BME280;3226;42.162;24.756;2023-03-08T05:20:53;99026.00;;;3.13;92.93
6387;BME280;3226;42.162;24.756;2023-03-08T05:23:23;99030.91;;;3.17;93.18
6387;BME280;3226;42.162;24.756;2023-03-08T05:25:56;99011.41;;;3.26;92.18
6387;BME280;3226;42.162;24.756;2023-03-08T05:28:26;99024.81;;;3.46;92.83
6387;BME280;3226;42.162;24.756;2023-03-08T05:30:59;99025.38;;;3.51;91.62
6387;BME280;3226;42.162;24.756;2023-03-08T05:33:28;99034.84;;;3.38;91.35
6387;BME280;3226;42.162;24.756;2023-03-08T05:35:56;99026.00;;;3.55;90.74
6387;BME280;3226;42.162;24.756;2023-03-08T05:38:26;99018.63;;;3.49;91.34
6387;BME280;3226;42.162;24.756;2023-03-08T05:40:59;99029.13;;;3.60;91.80
6387;BME280;3226;42.162;24.756;2023-03-08T05:43:27;99031.16;;;4.10;90.15
6387;BME280;3226;42.162;24.756;2023-03-08T05:45:56;99036.56;;;4.32;88.90
6387;BME280;3226;42.162;24.756;2023-03-08T05:48:25;99039.50;;;4.54;87.50
6387;BME280;3226;42.162;24.756;2023-03-08T05:50:53;99039.50;;;4.80;85.69
6387;BME280;3226;42.162;24.756;2023-03-08T05:53:21;99052.03;;;4.86;84.26
6387;BME280;3226;42.162;24.756;2023-03-08T05:55:51;99011.81;;;4.67;82.61
6387;BME280;3226;42.162;24.756;2023-03-08T05:58:21;99058.88;;;5.13;82.98
6387;BME280;3226;42.162;24.756;2023-03-08T06:00:49;99062.63;;;5.46;82.24
6387;BME280;3226;42.162;24.756;2023-03-08T06:03:17;99071.16;;;5.97;78.90
6387;BME280;3226;42.162;24.756;2023-03-08T06:05:45;99065.28;;;6.19;75.57
6387;BME280;3226;42.162;24.756;2023-03-08T06:08:12;99072.69;;;6.12;75.39
6387;BME280;3226;42.162;24.756;2023-03-08T06:10:40;99079.53;;;6.49;74.20
6387;BME280;3226;42.162;24.756;2023-03-08T06:13:10;99081.47;;;6.22;73.51
6387;BME280;3226;42.162;24.756;2023-03-08T06:15:38;99087.06;;;6.05;73.45
6387;BME280;3226;42.162;24.756;2023-03-08T06:18:05;99086.19;;;6.29;72.60
6387;BME280;3226;42.162;24.756;2023-03-08T06:20:33;99077.19;;;6.57;73.29
6387;BME280;3226;42.162;24.756;2023-03-08T06:23:01;99077.44;;;6.88;71.70
6387;BME280;3226;42.162;24.756;2023-03-08T06:25:29;99078.53;;;6.97;71.63
6387;BME280;3226;42.162;24.756;2023-03-08T06:27:57;99051.19;;;6.80;71.09
6387;BME280;3226;42.162;24.756;2023-03-08T06:30:27;99077.94;;;7.05;71.59
6387;BME280;3226;42.162;24.756;2023-03-08T06:32:55;99076.28;;;7.15;72.34
6387;BME280;3226;42.162;24.756;2023-03-08T06:35:22;99086.19;;;7.44;70.69
6387;BME280;3226;42.162;24.756;2023-03-08T06:37:50;99102.97;;;7.74;68.65
6387;BME280;3226;42.162;24.756;2023-03-08T06:40:19;99107.34;;;7.74;67.50
6387;BME280;3226;42.162;24.756;2023-03-08T06:42:47;99122.63;;;7.78;67.34
6387;BME280;3226;42.162;24.756;2023-03-08T06:45:15;99125.53;;;7.30;67.76
6387;BME280;3226;42.162;24.756;2023-03-08T06:47:44;99128.63;;;7.35;69.33
6387;BME280;3226;42.162;24.756;2023-03-08T06:50:12;99129.00;;;7.97;69.05
6387;BME280;3226;42.162;24.756;2023-03-08T06:52:40;99127.34;;;8.29;66.79
6387;BME280;3226;42.162;24.756;2023-03-08T06:55:09;99122.16;;;8.50;65.85
6387;BME280;3226;42.162;24.756;2023-03-08T06:57:37;99132.69;;;8.60;65.94
6387;BME280;3226;42.162;24.756;2023-03-08T07:00:07;99129.44;;;8.67;65.35
6387;BME280;3226;42.162;24.756;2023-03-08T07:02:37;99133.63;;;8.80;64.01
6387;BME280;3226;42.162;24.756;2023-03-08T07:05:07;99141.59;;;8.13;64.55
6387;BME280;3226;42.162;24.756;2023-03-08T07:07:35;99144.16;;;7.92;65.83
6387;BME280;3226;42.162;24.756;2023-03-08T07:10:04;99142.06;;;7.74;67.14
6387;BME280;3226;42.162;24.756;2023-03-08T07:12:33;99143.19;;;7.93;66.93
6387;BME280;3226;42.162;24.756;2023-03-08T07:15:06;99131.41;;;7.77;66.77
6387;BME280;3226;42.162;24.756;2023-03-08T07:17:34;99119.47;;;8.07;67.11
6387;BME280;3226;42.162;24.756;2023-03-08T07:20:03;99150.00;;;8.61;64.88
6387;BME280;3226;42.162;24.756;2023-03-08T07:22:33;99142.16;;;8.82;64.22
6387;BME280;3226;42.162;24.756;2023-03-08T07:25:01;99142.66;;;8.97;65.08
6387;BME280;3226;42.162;24.756;2023-03-08T07:27:29;99142.81;;;9.26;63.91
6387;BME280;3226;42.162;24.756;2023-03-08T07:29:57;99140.34;;;9.25;63.46
6387;BME280;3226;42.162;24.756;2023-03-08T07:32:25;99145.91;;;9.42;62.00
6387;BME280;3226;42.162;24.756;2023-03-08T07:34:55;99136.59;;;9.59;61.23
6387;BME280;3226;42.162;24.756;2023-03-08T07:37:23;99141.59;;;9.72;60.99
6387;BME280;3226;42.162;24.756;2023-03-08T07:39:52;99150.16;;;9.83;60.16
6387;BME280;3226;42.162;24.756;2023-03-08T07:42:20;99141.09;;;10.17;58.53
6387;BME280;3226;42.162;24.756;2023-03-08T07:44:48;99119.63;;;10.13;58.60
6387;BME280;3226;42.162;24.756;2023-03-08T07:47:16;99131.78;;;10.44;57.66
6387;BME280;3226;42.162;24.756;2023-03-08T07:49:44;99138.38;;;10.58;56.89
6387;BME280;3226;42.162;24.756;2023-03-08T07:52:12;99139.84;;;10.90;55.83
6387;BME280;3226;42.162;24.756;2023-03-08T07:54:41;99145.75;;;11.02;55.88
6387;BME280;3226;42.162;24.756;2023-03-08T07:57:12;99151.78;;;11.12;55.97
6387;BME280;3226;42.162;24.756;2023-03-08T07:59:40;99141.09;;;11.62;53.94
6387;BME280;3226;42.162;24.756;2023-03-08T08:02:10;99145.31;;;12.00;53.25
6387;BME280;3226;42.162;24.756;2023-03-08T08:04:38;99132.53;;;11.88;52.39
6387;BME280;3226;42.162;24.756;2023-03-08T08:07:11;99143.13;;;11.40;52.86
6387;BME280;3226;42.162;24.756;2023-03-08T08:09:39;99129.81;;;11.23;53.09
6387;BME280;3226;42.162;24.756;2023-03-08T08:12:07;99140.00;;;12.10;51.09
6387;BME280;3226;42.162;24.756;2023-03-08T08:14:37;99131.06;;;12.84;51.18
6387;BME280;3226;42.162;24.756;2023-03-08T08:17:05;99130.03;;;13.03;48.19
6387;BME280;3226;42.162;24.756;2023-03-08T08:19:33;99130.69;;;13.32;47.46
6387;BME280;3226;42.162;24.756;2023-03-08T08:22:01;99127.47;;;13.46;47.21
6387;BME280;3226;42.162;24.756;2023-03-08T08:24:29;99128.44;;;13.80;47.49
6387;BME280;3226;42.162;24.756;2023-03-08T08:26:58;99133.53;;;13.90;47.04
6387;BME280;3226;42.162;24.756;2023-03-08T08:29:26;99130.63;;;14.17;47.28
6387;BME280;3226;42.162;24.756;2023-03-08T08:31:55;99131.34;;;13.68;46.93
6387;BME280;3226;42.162;24.756;2023-03-08T08:34:24;99136.22;;;14.14;47.00
6387;BME280;3226;42.162;24.756;2023-03-08T08:36:51;99142.81;;;14.52;46.23
6387;BME280;3226;42.162;24.756;2023-03-08T08:39:20;99153.69;;;14.90;45.37
6387;BME280;3226;42.162;24.756;2023-03-08T08:41:48;99146.44;;;15.09;45.35
6387;BME280;3226;42.162;24.756;2023-03-08T08:44:16;99142.81;;;15.58;43.50
6387;BME280;3226;42.162;24.756;2023-03-08T08:46:44;99113.59;;;15.11;43.70
6387;BME280;3226;42.162;24.756;2023-03-08T08:49:13;99149.59;;;14.87;43.97
6387;BME280;3226;42.162;24.756;2023-03-08T08:51:41;99145.13;;;14.46;44.75
6387;BME280;3226;42.162;24.756;2023-03-08T08:54:09;99141.19;;;14.76;45.21
6387;BME280;3226;42.162;24.756;2023-03-08T08:56:37;99135.25;;;14.90;44.32
6387;BME280;3226;42.162;24.756;2023-03-08T08:59:10;99145.25;;;15.11;45.05
6387;BME280;3226;42.162;24.756;2023-03-08T09:01:38;99136.72;;;14.84;44.73
6387;BME280;3226;42.162;24.756;2023-03-08T09:04:10;99136.91;;;14.41;45.18
6387;BME280;3226;42.162;24.756;2023-03-08T09:06:40;99130.94;;;13.98;45.99
6387;BME280;3226;42.162;24.756;2023-03-08T09:09:08;99068.38;;;13.83;46.23
6387;BME280;3226;42.162;24.756;2023-03-08T09:11:36;99121.41;;;14.63;46.21
6387;BME280;3226;42.162;24.756;2023-03-08T09:14:19;99112.13;;;15.00;44.67
6387;BME280;3226;42.162;24.756;2023-03-08T09:16:48;99021.72;;;14.92;42.93
6387;BME280;3226;42.162;24.756;2023-03-08T09:19:16;99101.22;;;15.92;41.66
6387;BME280;3226;42.162;24.756;2023-03-08T09:21:45;99110.38;;;16.04;40.73
6387;BME280;3226;42.162;24.756;2023-03-08T09:24:13;99099.06;;;16.57;38.97
6387;BME280;3226;42.162;24.756;2023-03-08T09:26:42;99098.38;;;16.78;38.93
6387;BME280;3226;42.162;24.756;2023-03-08T09:29:10;99079.34;;;17.13;38.07
6387;BME280;3226;42.162;24.756;2023-03-08T09:31:38;99101.84;;;17.90;37.12
6387;BME280;3226;42.162;24.756;2023-03-08T09:34:09;99107.84;;;17.84;37.10
6387;BME280;3226;42.162;24.756;2023-03-08T09:36:40;99093.91;;;17.39;37.92
6387;BME280;3226;42.162;24.756;2023-03-08T09:39:11;99100.34;;;18.03;36.69
6387;BME280;3226;42.162;24.756;2023-03-08T09:41:47;99101.28;;;18.17;36.27
6387;BME280;3226;42.162;24.756;2023-03-08T09:47:18;99108.28;;;18.03;36.97
6387;BME280;3226;42.162;24.756;2023-03-08T09:49:53;99097.94;;;17.34;39.13
6387;BME280;3226;42.162;24.756;2023-03-08T09:52:26;99098.19;;;17.40;38.40
6387;BME280;3226;42.162;24.756;2023-03-08T09:54:59;99063.63;;;16.81;40.27
6387;BME280;3226;42.162;24.756;2023-03-08T09:57:34;99100.19;;;17.53;37.35
6387;BME280;3226;42.162;24.756;2023-03-08T10:00:09;99095.13;;;17.73;36.89
6387;BME280;3226;42.162;24.756;2023-03-08T10:02:46;99087.75;;;17.16;37.80
6387;BME280;3226;42.162;24.756;2023-03-08T10:05:22;99087.75;;;17.01;39.23
6387;BME280;3226;42.162;24.756;2023-03-08T10:07:56;99090.84;;;17.20;38.56
6387;BME280;3226;42.162;24.756;2023-03-08T10:10:36;99088.31;;;17.63;35.35
6387;BME280;3226;42.162;24.756;2023-03-08T10:13:22;99088.00;;;17.95;35.02
6387;BME280;3226;42.162;24.756;2023-03-08T10:15:57;99080.50;;;17.77;35.06
6387;BME280;3226;42.162;24.756;2023-03-08T10:18:34;99087.59;;;17.55;37.12
6387;BME280;3226;42.162;24.756;2023-03-08T10:21:05;99072.66;;;17.32;37.31
6387;BME280;3226;42.162;24.756;2023-03-08T10:23:37;99085.56;;;17.20;37.43
6387;BME280;3226;42.162;24.756;2023-03-08T10:26:11;99072.63;;;17.47;36.81
6387;BME280;3226;42.162;24.756;2023-03-08T10:28:39;99078.22;;;17.52;36.87
6387;BME280;3226;42.162;24.756;2023-03-08T10:31:18;99073.88;;;17.88;35.96
6387;BME280;3226;42.162;24.756;2023-03-08T10:33:49;99063.25;;;17.66;36.34
6387;BME280;3226;42.162;24.756;2023-03-08T10:36:21;99064.59;;;17.77;33.54
6387;BME280;3226;42.162;24.756;2023-03-08T10:39:04;99057.44;;;17.92;33.11
6387;BME280;3226;42.162;24.756;2023-03-08T10:41:40;99049.97;;;17.81;34.11
6387;BME280;3226;42.162;24.756;2023-03-08T10:44:13;99037.75;;;17.80;34.10
6387;BME280;3226;42.162;24.756;2023-03-08T10:46:47;99050.69;;;17.90;32.80
6387;BME280;3226;42.162;24.756;2023-03-08T10:49:16;99047.59;;;17.86;32.58
6387;BME280;3226;42.162;24.756;2023-03-08T10:51:53;99034.66;;;18.20;31.40
6387;BME280;3226;42.162;24.756;2023-03-08T10:54:21;99028.34;;;18.21;30.95
6387;BME280;3226;42.162;24.756;2023-03-08T10:56:54;99029.94;;;17.94;32.10
6387;BME280;3226;42.162;24.756;2023-03-08T10:59:26;99031.19;;;18.19;30.63
6387;BME280;3226;42.162;24.756;2023-03-08T11:02:00;99025.16;;;18.32;30.64
6387;BME280;3226;42.162;24.756;2023-03-08T11:04:29;99020.59;;;18.19;30.78
6387;BME280;3226;42.162;24.756;2023-03-08T11:07:08;99017.84;;;18.34;30.76
6387;BME280;3226;42.162;24.756;2023-03-08T11:09:37;98998.94;;;18.44;30.29
6387;BME280;3226;42.162;24.756;2023-03-08T11:12:20;99016.31;;;17.53;30.32
6387;BME280;3226;42.162;24.756;2023-03-08T11:14:50;99002.72;;;17.19;31.19
6387;BME280;3226;42.162;24.756;2023-03-08T11:17:22;98999.06;;;16.90;31.27
6387;BME280;3226;42.162;24.756;2023-03-08T11:19:58;98987.53;;;17.28;32.79
6387;BME280;3226;42.162;24.756;2023-03-08T11:22:47;98997.38;;;17.34;30.86
6387;BME280;3226;42.162;24.756;2023-03-08T11:25:31;98981.38;;;17.43;30.55
6387;BME280;3226;42.162;24.756;2023-03-08T11:28:29;98978.91;;;17.19;30.35
6387;BME280;3226;42.162;24.756;2023-03-08T11:31:10;98978.09;;;17.41;30.22
6387;BME280;3226;42.162;24.756;2023-03-08T11:34:12;98982.69;;;17.32;30.59
6387;BME280;3226;42.162;24.756;2023-03-08T11:36:48;98953.94;;;17.07;31.63
6387;BME280;3226;42.162;24.756;2023-03-08T11:39:24;98965.53;;;16.91;31.12
6387;BME280;3226;42.162;24.756;2023-03-08T11:41:57;98959.72;;;16.81;31.76
6387;BME280;3226;42.162;24.756;2023-03-08T11:44:47;98965.72;;;16.59;32.22
6387;BME280;3226;42.162;24.756;2023-03-08T11:50:28;98935.72;;;16.82;31.35
6387;BME280;3226;42.162;24.756;2023-03-08T11:53:14;98953.69;;;17.24;31.28
6387;BME280;3226;42.162;24.756;2023-03-08T11:56:01;98919.88;;;17.19;31.15
6387;BME280;3226;42.162;24.756;2023-03-08T11:58:35;98927.75;;;16.97;31.28
6387;BME280;3226;42.162;24.756;2023-03-08T12:01:12;98955.00;;;17.13;31.73
6387;BME280;3226;42.162;24.756;2023-03-08T12:03:44;98952.50;;;17.48;30.64
6387;BME280;3226;42.162;24.756;2023-03-08T12:06:16;98945.72;;;17.60;30.72
6387;BME280;3226;42.162;24.756;2023-03-08T12:08:58;98947.91;;;17.57;30.16
6387;BME280;3226;42.162;24.756;2023-03-08T12:11:30;98945.53;;;17.40;30.24
6387;BME280;3226;42.162;24.756;2023-03-08T12:14:04;98937.56;;;17.84;29.80
6387;BME280;3226;42.162;24.756;2023-03-08T12:16:44;98849.66;;;17.38;29.99
6387;BME280;3226;42.162;24.756;2023-03-08T12:19:22;98927.00;;;18.12;29.86
6387;BME280;3226;42.162;24.756;2023-03-08T12:21:56;98925.78;;;18.15;30.67
6387;BME280;3226;42.162;24.756;2023-03-08T12:24:34;98923.09;;;18.08;29.99
6387;BME280;3226;42.162;24.756;2023-03-08T12:27:10;98911.53;;;17.87;29.34
6387;BME280;3226;42.162;24.756;2023-03-08T12:29:43;98924.88;;;17.79;29.60
6387;BME280;3226;42.162;24.756;2023-03-08T12:32:16;98933.50;;;18.10;30.11
6387;BME280;3226;42.162;24.756;2023-03-08T12:34:45;98932.56;;;17.96;30.09
6387;BME280;3226;42.162;24.756;2023-03-08T12:37:19;98929.41;;;17.85;29.91
6387;BME280;3226;42.162;24.756;2023-03-08T12:39:57;98931.16;;;18.22;29.56
6387;BME280;3226;42.162;24.756;2023-03-08T12:42:31;98923.63;;;17.75;29.89
6387;BME280;3226;42.162;24.756;2023-03-08T12:45:08;98930.13;;;17.29;30.36
6387;BME280;3226;42.162;24.756;2023-03-08T12:47:38;98926.91;;;17.12;30.56
6387;BME280;3226;42.162;24.756;2023-03-08T12:50:09;98920.19;;;17.53;30.32
6387;BME280;3226;42.162;24.756;2023-03-08T12:52:42;98916.00;;;17.87;29.88
6387;BME280;3226;42.162;24.756;2023-03-08T12:55:17;98922.81;;;18.25;29.76
6387;BME280;3226;42.162;24.756;2023-03-08T12:57:49;98922.44;;;18.34;29.24
6387;BME280;3226;42.162;24.756;2023-03-08T13:00:26;98926.13;;;18.40;30.06
6387;BME280;3226;42.162;24.756;2023-03-08T13:03:01;98924.34;;;18.47;30.30
6387;BME280;3226;42.162;24.756;2023-03-08T13:05:33;98904.00;;;18.19;30.53
6387;BME280;3226;42.162;24.756;2023-03-08T13:08:17;98901.91;;;17.58;31.47
6387;BME280;3226;42.162;24.756;2023-03-08T13:11:05;98907.41;;;17.56;30.67
6387;BME280;3226;42.162;24.756;2023-03-08T13:13:46;98895.97;;;17.77;30.66
6387;BME280;3226;42.162;24.756;2023-03-08T13:16:28;98908.06;;;18.15;31.10
6387;BME280;3226;42.162;24.756;2023-03-08T13:19:15;98912.44;;;18.37;30.05
6387;BME280;3226;42.162;24.756;2023-03-08T13:21:52;98909.06;;;18.49;30.23
6387;BME280;3226;42.162;24.756;2023-03-08T13:24:31;98896.41;;;18.52;29.46
6387;BME280;3226;42.162;24.756;2023-03-08T13:27:22;98903.81;;;18.63;28.74
6387;BME280;3226;42.162;24.756;2023-03-08T13:30:14;98897.13;;;18.74;29.36
6387;BME280;3226;42.162;24.756;2023-03-08T13:32:44;98889.16;;;18.67;28.50
6387;BME280;3226;42.162;24.756;2023-03-08T13:35:16;98907.59;;;18.96;28.78
6387;BME280;3226;42.162;24.756;2023-03-08T13:37:51;98909.22;;;18.83;28.94
6387;BME280;3226;42.162;24.756;2023-03-08T13:40:20;98914.78;;;19.02;27.98
6387;BME280;3226;42.162;24.756;2023-03-08T13:42:53;98910.94;;;19.11;27.68
6387;BME280;3226;42.162;24.756;2023-03-08T13:45:21;98910.94;;;19.18;28.34
6387;BME280;3226;42.162;24.756;2023-03-08T13:47:50;98901.81;;;19.41;27.57
6387;BME280;3226;42.162;24.756;2023-03-08T13:50:26;98872.09;;;18.97;28.40
6387;BME280;3226;42.162;24.756;2023-03-08T13:52:54;98894.94;;;18.91;29.14
6387;BME280;3226;42.162;24.756;2023-03-08T13:55:27;98879.00;;;18.84;28.90
6387;BME280;3226;42.162;24.756;2023-03-08T13:57:57;98894.16;;;18.97;28.89
6387;BME280;3226;42.162;24.756;2023-03-08T14:00:28;98885.88;;;18.72;29.12
6387;BME280;3226;42.162;24.756;2023-03-08T14:02:56;98864.16;;;18.41;29.34
6387;BME280;3226;42.162;24.756;2023-03-08T14:05:29;98888.38;;;18.31;30.37
6387;BME280;3226;42.162;24.756;2023-03-08T14:07:59;98870.56;;;17.90;30.56
6387;BME280;3226;42.162;24.756;2023-03-08T14:10:44;98882.56;;;18.14;30.11
6387;BME280;3226;42.162;24.756;2023-03-08T14:13:16;98886.91;;;18.22;29.89
6387;BME280;3226;42.162;24.756;2023-03-08T14:15:50;98867.78;;;18.33;29.56
6387;BME280;3226;42.162;24.756;2023-03-08T14:18:21;98877.16;;;18.29;29.26
6387;BME280;3226;42.162;24.756;2023-03-08T14:21:15;98863.25;;;18.20;29.68
6387;BME280;3226;42.162;24.756;2023-03-08T14:23:46;98870.56;;;18.18;29.98
6387;BME280;3226;42.162;24.756;2023-03-08T14:26:29;98865.91;;;17.92;29.70
6387;BME280;3226;42.162;24.756;2023-03-08T14:29:10;98872.44;;;17.89;29.82
6387;BME280;3226;42.162;24.756;2023-03-08T14:31:51;98849.22;;;17.91;30.16
6387;BME280;3226;42.162;24.756;2023-03-08T14:34:22;98880.09;;;18.06;29.68
6387;BME280;3226;42.162;24.756;2023-03-08T14:36:55;98870.91;;;18.02;30.27
6387;BME280;3226;42.162;24.756;2023-03-08T14:39:25;98876.72;;;17.90;30.30
6387;BME280;3226;42.162;24.756;2023-03-08T14:41:55;98847.81;;;17.67;30.42
6387;BME280;3226;42.162;24.756;2023-03-08T14:44:25;98866.78;;;17.42;30.76
6387;BME280;3226;42.162;24.756;2023-03-08T14:46:54;98866.94;;;17.41;31.25
6387;BME280;3226;42.162;24.756;2023-03-08T14:49:26;98863.81;;;17.30;32.01
6387;BME280;3226;42.162;24.756;2023-03-08T14:51:56;98855.13;;;17.15;31.16
6387;BME280;3226;42.162;24.756;2023-03-08T14:54:30;98857.88;;;17.07;31.25
6387;BME280;3226;42.162;24.756;2023-03-08T14:57:02;98858.47;;;17.02;31.06
6387;BME280;3226;42.162;24.756;2023-03-08T14:59:39;98866.94;;;16.97;31.80
6387;BME280;3226;42.162;24.756;2023-03-08T15:02:10;98853.19;;;16.87;31.56
6387;BME280;3226;42.162;24.756;2023-03-08T15:04:40;98865.66;;;16.93;31.58
6387;BME280;3226;42.162;24.756;2023-03-08T15:07:15;98859.91;;;16.89;31.34